Time;durP1;ratioP1;P1;durP2;ratioP2;P2;SDS_P1;SDS_P2;PMS_P1;PMS_P2;Temp;Humidity;BMP_temperature;BMP_pressure;BME280_temperature;BME280_humidity;BME280_pressure;Samples;Min_cycle;Max_cycle;Signal;HPM_P1;HPM_P2
2021/12/24 00:01:53;;;;;;;;;;;;;;;-13.44;74.72;98879.34;4997438;28;19933;-76
2021/12/24 00:04:19;;;;;;;;;;;;;;;-13.38;74.83;98868.97;5013604;28;20311;-78
2021/12/24 00:06:44;;;;;;;;;;;;;;;-13.38;74.17;98877.31;4997109;28;19922;-77
2021/12/24 00:09:10;;;;;;;;;;;;;;;-13.37;74.42;98881.56;5015056;28;20479;-77
2021/12/24 00:11:36;;;;;;;;;;;;;;;-13.28;74.42;98883.00;5013703;28;19917;-78
2021/12/24 00:14:03;;;;;;;;;;;;;;;-13.36;74.53;98879.94;5013723;28;19913;-78
2021/12/24 00:16:41;;;;;;;;;;;;;;;-13.40;74.18;98875.47;5013776;28;19917;-78
2021/12/24 00:35:21;;;;;;;;;;;;;;;-13.49;74.00;98854.81;5014283;28;19917;-77
2021/12/24 00:37:47;;;;;;;;;;;;;;;-13.55;74.12;98852.72;5013210;28;19924;-78
2021/12/24 00:42:40;;;;;;;;;;;;;;;-13.62;75.05;98848.88;5013976;28;19917;-77
2021/12/24 00:45:06;;;;;;;;;;;;;;;-13.51;74.38;98847.22;4997726;28;19921;-77
2021/12/24 00:47:32;;;;;;;;;;;;;;;-13.58;74.24;98830.03;5014287;28;19990;-78
2021/12/24 00:49:58;;;;;;;;;;;;;;;-13.57;74.17;98835.91;5014229;28;19921;-77
2021/12/24 00:55:09;;;;;;;;;;;;;;;-13.49;73.88;98825.75;5012688;28;19917;-77
2021/12/24 00:57:43;;;;;;;;;;;;;;;-13.50;74.04;98825.66;4997811;28;19944;-77
2021/12/24 01:00:11;;;;;;;;;;;;;;;-13.53;73.43;98828.75;4997328;28;19957;-78
2021/12/24 01:02:36;;;;;;;;;;;;;;;-13.56;73.84;98842.63;4997747;28;19913;-78
2021/12/24 01:05:04;;;;;;;;;;;;;;;-13.54;73.92;98827.03;5013386;28;19918;-78
2021/12/24 01:07:30;;;;;;;;;;;;;;;-13.47;73.77;98833.34;4997503;28;19917;-77
2021/12/24 01:09:55;;;;;;;;;;;;;;;-13.52;73.37;98840.47;4997395;28;20012;-77
2021/12/24 01:12:21;;;;;;;;;;;;;;;-13.53;73.31;98823.78;5014127;28;19924;-77
2021/12/24 01:14:48;;;;;;;;;;;;;;;-13.54;73.45;98812.06;4997372;28;19921;-77
2021/12/24 01:19:45;;;;;;;;;;;;;;;-13.54;73.52;98832.03;5013235;28;20411;-76
2021/12/24 01:22:53;;;;;;;;;;;;;;;-13.55;73.51;98814.47;4997203;28;19925;-79
2021/12/24 01:25:21;;;;;;;;;;;;;;;-13.55;73.67;98820.31;4997178;28;20015;-78
2021/12/24 01:38:15;;;;;;;;;;;;;;;-13.46;73.37;98802.69;5010572;28;19917;-78
2021/12/24 01:43:16;;;;;;;;;;;;;;;-13.47;73.30;98804.28;5028276;28;19963;-80
2021/12/24 01:45:42;;;;;;;;;;;;;;;-13.45;73.49;98805.28;5012935;28;19917;-78
2021/12/24 01:48:08;;;;;;;;;;;;;;;-13.44;73.50;98802.03;5012934;28;19925;-76
2021/12/24 01:50:35;;;;;;;;;;;;;;;-13.41;73.90;98802.25;4996617;28;19940;-77
2021/12/24 01:53:01;;;;;;;;;;;;;;;-13.49;73.30;98809.91;5029175;28;19917;-79
2021/12/24 01:55:28;;;;;;;;;;;;;;;-13.45;73.75;98789.44;4996513;28;20415;-76
2021/12/24 01:57:54;;;;;;;;;;;;;;;-13.39;73.98;98792.38;5028964;28;19917;-77
2021/12/24 02:00:39;;;;;;;;;;;;;;;-13.42;73.62;98785.56;5029303;28;19914;-77
2021/12/24 02:03:05;;;;;;;;;;;;;;;-13.44;73.72;98797.03;5012718;28;20300;-78
2021/12/24 02:05:31;;;;;;;;;;;;;;;-13.40;73.21;98766.56;5013097;28;19924;-80
2021/12/24 02:07:58;;;;;;;;;;;;;;;-13.44;73.28;98778.69;5012166;28;19925;-77
2021/12/24 02:10:23;;;;;;;;;;;;;;;-13.47;73.26;98769.34;5028522;28;20463;-77
2021/12/24 02:12:49;;;;;;;;;;;;;;;-13.43;73.71;98753.00;5028274;28;20330;-77
2021/12/24 02:15:37;;;;;;;;;;;;;;;-13.47;73.70;98769.34;4995932;28;19917;-77
2021/12/24 02:28:35;;;;;;;;;;;;;;;-13.53;74.09;98758.94;5012335;28;19921;-77
2021/12/24 02:31:02;;;;;;;;;;;;;;;-13.49;74.32;98742.56;4995734;28;20277;-76
2021/12/24 02:33:28;;;;;;;;;;;;;;;-13.57;74.28;98744.50;5012149;28;19924;-77
2021/12/24 02:35:53;;;;;;;;;;;;;;;-13.63;74.32;98747.41;5012231;28;19917;-77
2021/12/24 02:38:20;;;;;;;;;;;;;;;-13.53;74.64;98733.13;5027976;28;19917;-77
2021/12/24 02:40:46;;;;;;;;;;;;;;;-13.54;74.47;98747.22;5012245;28;19920;-77
2021/12/24 02:43:15;;;;;;;;;;;;;;;-13.45;74.37;98742.03;5011687;28;19917;-77
2021/12/24 02:45:43;;;;;;;;;;;;;;;-13.48;74.38;98731.84;5012332;28;19914;-77
2021/12/24 02:48:24;;;;;;;;;;;;;;;-13.54;74.63;98711.44;4995608;28;20312;-79
2021/12/24 02:56:23;;;;;;;;;;;;;;;-13.46;74.47;98725.34;5009476;28;19943;-76
2021/12/24 02:58:49;;;;;;;;;;;;;;;-13.47;74.71;98716.97;4995455;28;19917;-77
2021/12/24 03:01:17;;;;;;;;;;;;;;;-13.47;74.81;98719.47;5011754;28;19917;-77
2021/12/24 03:03:47;;;;;;;;;;;;;;;-13.47;74.41;98716.09;5011878;28;20300;-77
2021/12/24 03:06:17;;;;;;;;;;;;;;;-13.47;74.60;98697.00;5011482;28;19921;-77
2021/12/24 03:08:42;;;;;;;;;;;;;;;-13.39;74.68;98703.44;4995215;28;19989;-77
2021/12/24 03:11:08;;;;;;;;;;;;;;;-13.40;75.09;98696.72;5011580;28;19929;-77
2021/12/24 03:13:33;;;;;;;;;;;;;;;-13.36;74.49;98697.81;5012020;28;19917;-78
2021/12/24 03:16:00;;;;;;;;;;;;;;;-13.37;74.49;98691.09;5011807;28;19921;-79
2021/12/24 03:18:28;;;;;;;;;;;;;;;-13.32;74.37;98701.41;5011865;28;19917;-78
2021/12/24 03:23:39;;;;;;;;;;;;;;;-13.24;75.09;98698.69;5010051;28;19978;-78
2021/12/24 03:26:05;;;;;;;;;;;;;;;-13.27;74.41;98687.66;5011591;28;19917;-81
2021/12/24 03:28:30;;;;;;;;;;;;;;;-13.25;73.91;98711.94;4995511;28;19920;-80
2021/12/24 03:30:56;;;;;;;;;;;;;;;-13.27;74.22;98687.66;5011721;28;20320;-80
2021/12/24 03:33:22;;;;;;;;;;;;;;;-13.25;74.43;98701.94;5012325;28;19913;-80
2021/12/24 03:35:48;;;;;;;;;;;;;;;-13.25;74.05;98674.50;4995489;28;19928;-78
2021/12/24 03:38:14;;;;;;;;;;;;;;;-13.19;74.18;98676.53;4995228;28;19939;-77
2021/12/24 03:40:40;;;;;;;;;;;;;;;-13.16;74.18;98690.09;5011259;28;19925;-77
2021/12/24 03:43:05;;;;;;;;;;;;;;;-13.13;74.41;98686.97;4995381;28;19917;-77
2021/12/24 03:45:42;;;;;;;;;;;;;;;-13.16;73.98;98684.25;5011637;28;20300;-78
2021/12/24 03:48:17;;;;;;;;;;;;;;;-13.07;74.10;98682.41;5009908;28;19932;-77
2021/12/24 03:50:56;;;;;;;;;;;;;;;-13.02;74.42;98685.25;5010388;28;20011;-79
2021/12/24 03:56:06;;;;;;;;;;;;;;;-12.98;73.45;98675.59;5011339;28;20007;-77
2021/12/24 03:58:32;;;;;;;;;;;;;;;-12.98;74.15;98677.22;5011649;28;20052;-77
2021/12/24 04:01:32;;;;;;;;;;;;;;;-12.98;73.61;98664.75;4967573;28;19918;-79
2021/12/24 04:04:27;;;;;;;;;;;;;;;-12.91;73.55;98684.41;4945807;28;19954;-78
2021/12/24 04:07:13;;;;;;;;;;;;;;;-12.89;73.83;98673.75;4975801;28;19951;-80
2021/12/24 04:10:05;;;;;;;;;;;;;;;-12.91;73.38;98675.28;4998103;28;20036;-78
2021/12/24 04:12:49;;;;;;;;;;;;;;;-12.79;73.57;98679.38;5001978;28;20004;-76
2021/12/24 04:15:15;;;;;;;;;;;;;;;-12.81;74.01;98667.66;4998661;28;20372;-81
2021/12/24 04:17:42;;;;;;;;;;;;;;;-12.78;73.12;98672.03;5014948;28;19948;-78
2021/12/24 04:25:37;;;;;;;;;;;;;;;-12.74;73.84;98673.94;5014596;28;19956;-77
2021/12/24 04:28:02;;;;;;;;;;;;;;;-12.70;73.74;98670.03;5014595;28;19968;-78
2021/12/24 04:30:35;;;;;;;;;;;;;;;-12.72;74.12;98692.44;5014532;28;19917;-77
2021/12/24 04:33:16;;;;;;;;;;;;;;;-12.70;73.87;98665.06;5014294;28;19939;-79
2021/12/24 04:35:56;;;;;;;;;;;;;;;-12.69;73.86;98674.28;5014394;28;20052;-77
2021/12/24 04:51:48;;;;;;;;;;;;;;;-12.58;73.51;98658.44;5014033;28;20372;-78
2021/12/24 05:03:00;;;;;;;;;;;;;;;-12.50;72.37;98676.47;5008794;28;19923;-78
2021/12/24 05:05:38;;;;;;;;;;;;;;;-12.56;72.92;98651.88;5013815;28;20304;-78
2021/12/24 05:08:21;;;;;;;;;;;;;;;-12.55;72.03;98661.16;4995883;28;19921;-78
2021/12/24 05:10:49;;;;;;;;;;;;;;;-12.57;72.86;98662.66;4996336;28;19921;-79
2021/12/24 05:13:16;;;;;;;;;;;;;;;-12.53;72.33;98658.75;4997821;28;19920;-77
2021/12/24 05:16:12;;;;;;;;;;;;;;;-12.55;73.25;98671.13;5014822;28;20299;-77
2021/12/24 05:19:14;;;;;;;;;;;;;;;-12.53;72.49;98659.59;4997351;28;20016;-77
2021/12/24 05:21:49;;;;;;;;;;;;;;;-12.49;73.22;98651.56;5015178;28;19968;-78
2021/12/24 05:24:15;;;;;;;;;;;;;;;-12.49;72.38;98664.06;5013270;28;19921;-77
2021/12/24 05:26:41;;;;;;;;;;;;;;;-12.41;73.54;98669.59;4997377;28;19925;-78
2021/12/24 05:29:07;;;;;;;;;;;;;;;-12.48;73.00;98657.44;5013373;28;20008;-78
2021/12/24 05:31:33;;;;;;;;;;;;;;;-12.52;73.40;98658.84;4996894;28;20021;-79
2021/12/24 05:33:58;;;;;;;;;;;;;;;-12.50;73.86;98643.97;4997066;28;20299;-77
2021/12/24 05:36:24;;;;;;;;;;;;;;;-12.54;72.68;98642.88;5013214;28;19993;-77
2021/12/24 05:38:49;;;;;;;;;;;;;;;-12.56;73.75;98651.88;5013026;28;19928;-78
2021/12/24 05:41:15;;;;;;;;;;;;;;;-12.49;73.78;98658.19;4996850;28;19924;-78
2021/12/24 05:43:40;;;;;;;;;;;;;;;-12.45;74.28;98656.03;5013167;28;20373;-78
2021/12/24 05:46:06;;;;;;;;;;;;;;;-12.47;73.80;98636.69;5013060;28;19913;-77
2021/12/24 05:48:58;;;;;;;;;;;;;;;-12.44;74.38;98657.75;5000462;28;19921;-78
2021/12/24 05:51:27;;;;;;;;;;;;;;;-12.43;73.19;98629.50;4996792;28;19921;-77
2021/12/24 05:54:15;;;;;;;;;;;;;;;-12.42;73.39;98623.72;5004066;28;19920;-79
2021/12/24 05:56:42;;;;;;;;;;;;;;;-12.50;73.93;98637.34;4996858;28;19917;-77
2021/12/24 05:59:16;;;;;;;;;;;;;;;-12.47;73.76;98637.53;4997895;28;19917;-78
2021/12/24 06:01:42;;;;;;;;;;;;;;;-12.45;73.56;98618.53;5012938;28;19940;-78
2021/12/24 06:04:07;;;;;;;;;;;;;;;-12.43;73.97;98633.63;5013249;28;19917;-78
2021/12/24 06:06:33;;;;;;;;;;;;;;;-12.45;74.79;98622.66;4996809;28;19946;-79
2021/12/24 06:08:58;;;;;;;;;;;;;;;-12.39;74.53;98618.09;4996743;28;19913;-77
2021/12/24 06:11:24;;;;;;;;;;;;;;;-12.42;73.88;98621.22;5014085;28;19964;-79
2021/12/24 06:13:53;;;;;;;;;;;;;;;-12.40;73.86;98622.22;5012828;28;19917;-79
2021/12/24 06:16:19;;;;;;;;;;;;;;;-12.34;74.42;98616.75;5013972;28;20269;-77
2021/12/24 06:18:45;;;;;;;;;;;;;;;-12.29;75.07;98617.94;5013821;28;19968;-78
2021/12/24 06:21:10;;;;;;;;;;;;;;;-12.32;73.67;98626.13;4996715;28;19964;-78
2021/12/24 06:23:38;;;;;;;;;;;;;;;-12.36;74.61;98654.16;5013210;28;19921;-78
2021/12/24 06:26:04;;;;;;;;;;;;;;;-12.34;74.12;98624.25;5013837;28;19913;-77
2021/12/24 06:28:29;;;;;;;;;;;;;;;-12.31;74.52;98635.34;5012784;28;19917;-77
2021/12/24 06:30:54;;;;;;;;;;;;;;;-12.30;74.14;98634.56;5013818;28;19935;-78
2021/12/24 06:33:20;;;;;;;;;;;;;;;-12.28;75.25;98636.28;5013956;28;19924;-78
2021/12/24 06:35:46;;;;;;;;;;;;;;;-12.27;74.28;98650.56;4996456;28;19917;-79
2021/12/24 06:38:11;;;;;;;;;;;;;;;-12.22;75.53;98647.59;4996325;28;20325;-77
2021/12/24 06:40:37;;;;;;;;;;;;;;;-12.21;75.16;98628.47;5012208;28;19932;-79
2021/12/24 06:43:02;;;;;;;;;;;;;;;-12.20;74.27;98630.19;5012186;28;20004;-78
2021/12/24 06:45:28;;;;;;;;;;;;;;;-12.19;74.22;98626.91;5012332;28;19917;-78
2021/12/24 06:47:54;;;;;;;;;;;;;;;-12.13;74.86;98629.84;5012243;28;19921;-78
2021/12/24 06:50:20;;;;;;;;;;;;;;;-12.17;75.24;98621.28;5012322;28;19917;-79
2021/12/24 06:52:45;;;;;;;;;;;;;;;-12.10;75.24;98630.03;5012063;28;20273;-78
2021/12/24 06:55:11;;;;;;;;;;;;;;;-12.14;74.66;98625.59;4996243;28;19921;-78
2021/12/24 06:57:40;;;;;;;;;;;;;;;-12.10;74.07;98632.53;5027895;28;19922;-77
2021/12/24 07:00:06;;;;;;;;;;;;;;;-12.10;75.33;98647.53;4995755;28;19913;-78
2021/12/24 07:02:32;;;;;;;;;;;;;;;-12.12;75.47;98629.09;4995933;28;19917;-80
2021/12/24 07:04:57;;;;;;;;;;;;;;;-12.13;74.19;98627.34;5013565;28;19917;-79
2021/12/24 07:07:23;;;;;;;;;;;;;;;-12.19;73.88;98632.78;5013418;28;19972;-78
2021/12/24 07:09:48;;;;;;;;;;;;;;;-12.13;75.55;98622.34;4995856;28;19913;-78
2021/12/24 07:12:14;;;;;;;;;;;;;;;-12.11;74.04;98616.69;5013358;28;19924;-78
2021/12/24 07:14:40;;;;;;;;;;;;;;;-12.14;74.48;98624.00;4996031;28;19913;-78
2021/12/24 07:17:05;;;;;;;;;;;;;;;-12.12;74.27;98624.94;5012094;28;19975;-78
2021/12/24 07:19:31;;;;;;;;;;;;;;;-12.11;73.86;98625.81;4995816;28;20379;-78
2021/12/24 07:21:56;;;;;;;;;;;;;;;-12.08;74.89;98624.41;5012288;28;19917;-79
2021/12/24 07:24:22;;;;;;;;;;;;;;;-12.09;74.08;98630.16;4995840;28;19921;-78
2021/12/24 07:26:47;;;;;;;;;;;;;;;-12.06;75.00;98625.34;4995565;28;19922;-78
2021/12/24 07:29:13;;;;;;;;;;;;;;;-12.05;74.80;98621.22;4995506;28;19917;-79
2021/12/24 07:31:38;;;;;;;;;;;;;;;-12.00;74.04;98629.03;4995598;28;19913;-78
2021/12/24 07:34:04;;;;;;;;;;;;;;;-12.06;73.76;98627.84;5012966;28;20016;-78
2021/12/24 07:36:29;;;;;;;;;;;;;;;-12.03;74.17;98629.69;5016023;28;19917;-77
2021/12/24 07:38:55;;;;;;;;;;;;;;;-12.02;73.93;98611.44;5016916;28;19925;-77
2021/12/24 07:41:20;;;;;;;;;;;;;;;-11.98;74.16;98630.00;5017250;28;19952;-78
2021/12/24 07:43:46;;;;;;;;;;;;;;;-11.98;74.21;98620.00;5015763;28;19924;-79
2021/12/24 07:46:11;;;;;;;;;;;;;;;-12.03;74.02;98623.84;5015686;28;19917;-78
2021/12/24 07:48:44;;;;;;;;;;;;;;;-11.97;75.75;98609.22;5017172;28;20005;-78
2021/12/24 07:54:11;;;;;;;;;;;;;;;-11.96;74.77;98604.31;4994808;28;20403;-77
2021/12/24 07:56:36;;;;;;;;;;;;;;;-11.98;74.50;98608.38;4994657;28;19943;-78
2021/12/24 07:59:02;;;;;;;;;;;;;;;-11.94;74.98;98604.44;4998793;28;19928;-78
2021/12/24 08:01:28;;;;;;;;;;;;;;;-11.99;74.93;98604.16;4999075;28;19925;-78
2021/12/24 08:03:53;;;;;;;;;;;;;;;-11.98;75.71;98605.88;5015110;28;20385;-78
2021/12/24 08:06:19;;;;;;;;;;;;;;;-11.92;74.92;98617.91;5014867;28;19921;-78
2021/12/24 08:08:45;;;;;;;;;;;;;;;-11.93;75.52;98602.03;5016358;28;19913;-79
2021/12/24 08:11:11;;;;;;;;;;;;;;;-11.86;75.72;98594.19;5016528;28;19921;-77
2021/12/24 08:13:36;;;;;;;;;;;;;;;-11.85;75.03;98602.56;5016365;28;19964;-79
2021/12/24 08:16:02;;;;;;;;;;;;;;;-11.83;75.96;98594.38;4998704;28;19918;-81
2021/12/24 08:18:28;;;;;;;;;;;;;;;-11.75;75.37;98596.50;4998873;28;19979;-79
2021/12/24 08:20:53;;;;;;;;;;;;;;;-11.73;74.89;98588.28;5015090;28;19940;-77
2021/12/24 08:23:19;;;;;;;;;;;;;;;-11.70;74.34;98590.16;5016108;28;19917;-77
2021/12/24 08:25:44;;;;;;;;;;;;;;;-11.67;74.02;98585.34;5016087;28;19917;-78
2021/12/24 08:28:10;;;;;;;;;;;;;;;-11.65;73.80;98578.81;4998657;28;20019;-78
2021/12/24 08:30:35;;;;;;;;;;;;;;;-11.62;74.33;98569.00;5016467;28;20019;-79
2021/12/24 08:33:01;;;;;;;;;;;;;;;-11.57;73.99;98561.00;5016052;28;19914;-78
2021/12/24 08:35:28;;;;;;;;;;;;;;;-11.54;75.57;98562.84;5016202;28;19949;-80
2021/12/24 08:37:53;;;;;;;;;;;;;;;-11.48;73.55;98567.38;4998565;28;20269;-78
2021/12/24 08:40:19;;;;;;;;;;;;;;;-11.54;74.78;98563.72;4998265;28;20024;-79
2021/12/24 08:42:44;;;;;;;;;;;;;;;-11.46;75.54;98550.81;4998326;28;19923;-81
2021/12/24 08:45:10;;;;;;;;;;;;;;;-11.40;74.98;98552.09;5014422;28;20004;-78
2021/12/24 08:47:35;;;;;;;;;;;;;;;-11.38;75.12;98550.53;5015792;28;19917;-77
2021/12/24 08:50:01;;;;;;;;;;;;;;;-11.36;74.18;98543.13;5015717;28;19979;-78
2021/12/24 08:52:27;;;;;;;;;;;;;;;-11.39;73.86;98542.94;4998133;28;19913;-77
2021/12/24 08:54:52;;;;;;;;;;;;;;;-11.43;73.69;98541.88;4998080;28;19921;-79
2021/12/24 08:57:18;;;;;;;;;;;;;;;-11.38;75.60;98530.50;5014372;28;19920;-78
2021/12/24 08:59:43;;;;;;;;;;;;;;;-11.32;75.54;98530.88;5014253;28;19987;-79
2021/12/24 09:02:09;;;;;;;;;;;;;;;-11.28;75.18;98524.44;4997711;28;19929;-78
2021/12/24 09:04:34;;;;;;;;;;;;;;;-11.27;73.55;98531.19;4997430;28;19918;-77
2021/12/24 09:07:00;;;;;;;;;;;;;;;-11.28;75.00;98527.81;4997977;28;19967;-78
2021/12/24 09:09:27;;;;;;;;;;;;;;;-11.29;73.53;98536.09;5015025;28;19917;-78
2021/12/24 09:11:53;;;;;;;;;;;;;;;-11.26;74.26;98512.91;5015371;28;19918;-79
2021/12/24 09:14:19;;;;;;;;;;;;;;;-11.20;74.69;98502.41;5015350;28;20289;-80
2021/12/24 09:16:48;;;;;;;;;;;;;;;-11.18;74.59;98508.34;4997691;28;20011;-77
2021/12/24 09:19:16;;;;;;;;;;;;;;;-11.13;74.08;98517.00;5014151;28;20407;-79
2021/12/24 09:21:42;;;;;;;;;;;;;;;-11.09;73.36;98518.94;5015462;28;20343;-78
2021/12/24 09:24:08;;;;;;;;;;;;;;;-11.05;73.47;98510.84;5013711;28;20012;-79
2021/12/24 09:26:34;;;;;;;;;;;;;;;-11.03;73.00;98499.31;4997477;28;19944;-80
2021/12/24 09:29:00;;;;;;;;;;;;;;;-10.99;73.11;98498.72;5014875;28;19925;-78
2021/12/24 09:31:26;;;;;;;;;;;;;;;-10.97;73.85;98494.66;5015089;28;19913;-83
2021/12/24 09:33:51;;;;;;;;;;;;;;;-10.95;72.99;98488.09;4997499;28;19959;-77
2021/12/24 09:36:23;;;;;;;;;;;;;;;-10.92;73.77;98487.44;4997272;28;19917;-77
2021/12/24 09:38:49;;;;;;;;;;;;;;;-10.90;73.94;98484.25;5013156;28;20339;-79
2021/12/24 09:41:14;;;;;;;;;;;;;;;-10.83;74.02;98476.31;5014580;28;19917;-80
2021/12/24 09:43:40;;;;;;;;;;;;;;;-10.79;73.51;98469.84;5029601;28;20402;-78
2021/12/24 09:46:05;;;;;;;;;;;;;;;-10.76;72.61;98458.38;4996860;28;19913;-78
2021/12/24 09:48:31;;;;;;;;;;;;;;;-10.68;73.80;98470.47;5014560;28;19917;-77
2021/12/24 09:50:56;;;;;;;;;;;;;;;-10.67;73.50;98464.69;4997078;28;19913;-80
2021/12/24 09:53:22;;;;;;;;;;;;;;;-10.61;72.73;98455.91;5013208;28;19923;-77
2021/12/24 09:55:47;;;;;;;;;;;;;;;-10.54;72.85;98452.13;4996625;28;20399;-79
2021/12/24 09:58:13;;;;;;;;;;;;;;;-10.47;72.55;98449.19;5013894;28;19918;-77
2021/12/24 10:00:39;;;;;;;;;;;;;;;-10.39;73.26;98445.50;5013113;28;20277;-77
2021/12/24 10:03:05;;;;;;;;;;;;;;;-10.50;72.44;98444.00;5013201;28;19967;-78
2021/12/24 10:05:37;;;;;;;;;;;;;;;-10.46;73.14;98433.38;5014254;28;19913;-80
2021/12/24 10:08:04;;;;;;;;;;;;;;;-10.40;71.84;98438.78;5013001;28;19925;-78
2021/12/24 10:10:31;;;;;;;;;;;;;;;-10.37;72.20;98433.91;5012951;28;19980;-79
2021/12/24 10:13:17;;;;;;;;;;;;;;;-10.38;71.51;98424.66;5013863;28;20021;-77
2021/12/24 10:15:56;;;;;;;;;;;;;;;-10.41;71.34;98424.47;5013804;28;19971;-78
2021/12/24 10:18:32;;;;;;;;;;;;;;;-10.41;72.76;98416.97;5014099;28;19917;-78
2021/12/24 10:20:58;;;;;;;;;;;;;;;-10.37;71.42;98403.81;5012932;28;19975;-77
2021/12/24 10:23:43;;;;;;;;;;;;;;;-10.31;72.37;98406.72;4980282;28;20052;-79
2021/12/24 10:26:15;;;;;;;;;;;;;;;-10.28;71.90;98406.00;5013862;28;19954;-79
2021/12/24 10:28:50;;;;;;;;;;;;;;;-10.28;72.25;98401.84;5013595;28;20375;-78
2021/12/24 10:31:17;;;;;;;;;;;;;;;-10.21;71.61;98403.03;5012691;28;19917;-79
2021/12/24 10:34:02;;;;;;;;;;;;;;;-10.20;71.69;98393.88;4996384;28;19921;-78
2021/12/24 10:36:28;;;;;;;;;;;;;;;-10.15;71.59;98387.47;4996337;28;20005;-79
2021/12/24 10:38:56;;;;;;;;;;;;;;;-10.11;71.40;98384.34;5012493;28;20277;-79
2021/12/24 10:41:24;;;;;;;;;;;;;;;-10.11;72.02;98385.22;5013969;28;19921;-79
2021/12/24 10:43:50;;;;;;;;;;;;;;;-10.08;71.87;98371.97;4996107;28;19917;-79
2021/12/24 10:46:19;;;;;;;;;;;;;;;-10.06;71.03;98372.94;4996102;28;19940;-78
2021/12/24 10:49:01;;;;;;;;;;;;;;;-10.07;71.23;98371.22;4996254;28;20016;-78
2021/12/24 10:54:25;;;;;;;;;;;;;;;-10.06;71.85;98360.38;4980871;28;20024;-78
2021/12/24 10:56:50;;;;;;;;;;;;;;;-10.06;71.16;98357.88;5012126;28;19960;-79
2021/12/24 10:59:17;;;;;;;;;;;;;;;-10.07;71.08;98361.19;5013690;28;19917;-79
2021/12/24 11:01:42;;;;;;;;;;;;;;;-9.97;72.40;98350.88;5012281;28;20430;-80
2021/12/24 11:04:08;;;;;;;;;;;;;;;-9.95;72.14;98350.94;5013679;28;19925;-81
2021/12/24 11:06:33;;;;;;;;;;;;;;;-10.03;71.46;98340.50;4995831;28;19917;-78
2021/12/24 11:08:59;;;;;;;;;;;;;;;-10.03;71.28;98338.00;4998475;28;19984;-79
2021/12/24 11:11:24;;;;;;;;;;;;;;;-10.00;71.72;98348.19;5000429;28;19921;-79
2021/12/24 11:13:50;;;;;;;;;;;;;;;-10.04;71.72;98331.22;5000939;28;20376;-79
2021/12/24 11:16:20;;;;;;;;;;;;;;;-10.05;71.66;98334.53;5017204;28;19913;-79
2021/12/24 11:18:53;;;;;;;;;;;;;;;-10.01;71.94;98329.75;5016289;28;20376;-78
2021/12/24 11:21:20;;;;;;;;;;;;;;;-10.03;71.75;98322.94;5000069;28;19971;-80
2021/12/24 11:23:45;;;;;;;;;;;;;;;-10.03;71.98;98332.97;4999855;28;19917;-77
2021/12/24 11:26:17;;;;;;;;;;;;;;;-10.05;72.39;98311.94;4999725;28;19923;-78
2021/12/24 11:28:43;;;;;;;;;;;;;;;-9.99;72.26;98318.19;4999631;28;20432;-79
2021/12/24 11:31:10;;;;;;;;;;;;;;;-9.93;72.05;98320.16;4999798;28;19967;-77
2021/12/24 11:33:37;;;;;;;;;;;;;;;-9.96;71.79;98314.97;5016401;28;19924;-78
2021/12/24 11:36:06;;;;;;;;;;;;;;;-9.98;71.74;98321.56;5017600;28;19935;-78
2021/12/24 11:38:37;;;;;;;;;;;;;;;-10.01;72.54;98318.88;5015654;28;20317;-78
2021/12/24 11:41:03;;;;;;;;;;;;;;;-10.03;72.44;98307.91;5015987;28;19917;-79
2021/12/24 11:43:33;;;;;;;;;;;;;;;-10.02;72.59;98307.13;4999286;28;20004;-79
2021/12/24 11:45:59;;;;;;;;;;;;;;;-10.04;72.14;98303.63;5015442;28;19925;-78
2021/12/24 11:48:26;;;;;;;;;;;;;;;-10.08;72.72;98292.59;5017137;28;19917;-77
2021/12/24 11:50:52;;;;;;;;;;;;;;;-10.10;72.84;98290.78;5015354;28;20375;-78
2021/12/24 11:53:18;;;;;;;;;;;;;;;-10.09;72.45;98288.34;5016851;28;19953;-79
2021/12/24 11:55:45;;;;;;;;;;;;;;;-10.10;72.42;98286.63;5015627;28;19917;-80
2021/12/24 11:58:17;;;;;;;;;;;;;;;-10.08;72.75;98282.56;5016358;28;19913;-80
2021/12/24 12:00:44;;;;;;;;;;;;;;;-10.12;72.79;98279.81;5015892;28;19917;-81
2021/12/24 12:03:10;;;;;;;;;;;;;;;-10.10;72.49;98281.59;5000113;28;19940;-83
2021/12/24 12:05:36;;;;;;;;;;;;;;;-10.13;72.94;98290.59;4999811;28;19924;-84
2021/12/24 12:08:20;;;;;;;;;;;;;;;-10.10;73.00;98288.28;4999144;28;19917;-80
2021/12/24 12:10:50;;;;;;;;;;;;;;;-10.15;72.17;98288.03;5017043;28;19917;-80
2021/12/24 12:13:34;;;;;;;;;;;;;;;-10.12;73.44;98272.28;5016031;28;19913;-82
2021/12/24 12:16:00;;;;;;;;;;;;;;;-10.10;72.09;98270.72;5017282;28;19917;-77
2021/12/24 12:18:28;;;;;;;;;;;;;;;-10.13;72.27;98278.06;4998614;28;19967;-79
2021/12/24 12:21:01;;;;;;;;;;;;;;;-10.19;72.56;98278.59;5014196;28;20020;-78
2021/12/24 12:23:48;;;;;;;;;;;;;;;-10.25;71.74;98276.66;5031757;28;19927;-81
2021/12/24 12:26:31;;;;;;;;;;;;;;;-10.28;72.27;98280.63;5016468;28;19917;-79
2021/12/24 12:29:15;;;;;;;;;;;;;;;-10.28;72.03;98296.53;5015027;28;19924;-78
2021/12/24 12:31:41;;;;;;;;;;;;;;;-10.29;72.86;98281.44;5015109;28;19917;-80
2021/12/24 12:34:33;;;;;;;;;;;;;;;-10.30;73.24;98285.59;4998590;28;19940;-78
2021/12/24 12:37:10;;;;;;;;;;;;;;;-10.30;71.87;98268.03;5000448;28;19960;-78
2021/12/24 12:39:36;;;;;;;;;;;;;;;-10.29;72.09;98274.75;4998177;28;19921;-80
2021/12/24 12:42:02;;;;;;;;;;;;;;;-10.37;71.85;98275.97;4998576;28;19959;-80
2021/12/24 12:44:28;;;;;;;;;;;;;;;-10.37;72.09;98275.13;4998601;28;19921;-77
2021/12/24 12:47:01;;;;;;;;;;;;;;;-10.45;72.18;98274.69;5014619;28;20423;-81
2021/12/24 12:49:32;;;;;;;;;;;;;;;-10.51;71.66;98269.34;4998215;28;19921;-80
2021/12/24 12:51:59;;;;;;;;;;;;;;;-10.52;72.61;98267.63;4998181;28;19991;-82
2021/12/24 12:54:30;;;;;;;;;;;;;;;-10.54;72.48;98276.69;5014638;28;20002;-79
2021/12/24 12:57:11;;;;;;;;;;;;;;;-10.55;72.17;98268.31;4998001;28;19917;-80
2021/12/24 12:59:36;;;;;;;;;;;;;;;-10.54;73.63;98274.19;4999002;28;19940;-80
2021/12/24 13:02:02;;;;;;;;;;;;;;;-10.61;72.06;98275.50;4998082;28;20426;-80
2021/12/24 13:04:28;;;;;;;;;;;;;;;-10.63;72.43;98271.16;5014892;28;19921;-78
2021/12/24 13:06:54;;;;;;;;;;;;;;;-10.64;71.94;98262.78;4997895;28;20399;-79
2021/12/24 13:09:24;;;;;;;;;;;;;;;-10.62;73.46;98272.91;5014530;28;19960;-82
2021/12/24 13:11:50;;;;;;;;;;;;;;;-10.63;72.55;98258.63;5014641;28;19917;-81
2021/12/24 13:14:16;;;;;;;;;;;;;;;-10.67;72.08;98250.09;5014398;28;19940;-78
2021/12/24 13:16:51;;;;;;;;;;;;;;;-10.67;72.41;98264.25;4998011;28;19918;-78
2021/12/24 13:19:44;;;;;;;;;;;;;;;-10.68;73.26;98253.38;5014212;28;20080;-82
2021/12/24 13:24:54;;;;;;;;;;;;;;;-10.71;72.98;98252.34;5014257;28;19917;-80
2021/12/24 13:27:20;;;;;;;;;;;;;;;-10.66;72.11;98255.97;4997950;28;19918;-83
2021/12/24 13:29:46;;;;;;;;;;;;;;;-10.68;73.32;98245.00;5014072;28;19963;-79
2021/12/24 13:32:11;;;;;;;;;;;;;;;-10.70;73.00;98244.91;5014339;28;19917;-78
2021/12/24 13:34:37;;;;;;;;;;;;;;;-10.67;72.92;98245.09;4998216;28;20343;-80
2021/12/24 13:37:09;;;;;;;;;;;;;;;-10.65;73.44;98230.13;4997542;28;20295;-79
2021/12/24 13:39:35;;;;;;;;;;;;;;;-10.67;73.42;98230.06;5030128;28;19921;-81
2021/12/24 13:42:02;;;;;;;;;;;;;;;-10.65;73.08;98222.63;4997539;28;19924;-79
2021/12/24 13:44:29;;;;;;;;;;;;;;;-10.60;72.52;98216.22;5013774;28;20438;-79
2021/12/24 13:47:13;;;;;;;;;;;;;;;-10.65;72.24;98208.44;4997513;28;19956;-77
2021/12/24 13:50:00;;;;;;;;;;;;;;;-10.66;72.68;98224.25;4997131;28;19928;-82
2021/12/24 13:55:38;;;;;;;;;;;;;;;-10.62;72.17;98225.31;5015071;28;19917;-80
2021/12/24 13:58:04;;;;;;;;;;;;;;;-10.61;72.23;98220.38;4997049;28;19956;-82
2021/12/24 14:00:30;;;;;;;;;;;;;;;-10.64;73.25;98224.34;5014547;28;19964;-81
2021/12/24 14:02:57;;;;;;;;;;;;;;;-10.64;73.23;98229.34;5013488;28;20380;-79
2021/12/24 14:05:23;;;;;;;;;;;;;;;-10.73;73.19;98228.84;5013621;28;20003;-82
2021/12/24 14:08:02;;;;;;;;;;;;;;;-10.70;71.82;98216.50;4996826;28;20400;-80
2021/12/24 14:10:28;;;;;;;;;;;;;;;-10.73;72.73;98208.78;4997018;28;20307;-81
2021/12/24 14:12:55;;;;;;;;;;;;;;;-10.76;71.48;98204.50;4996941;28;19921;-77
2021/12/24 14:15:25;;;;;;;;;;;;;;;-10.77;72.15;98203.59;4996962;28;19921;-78
2021/12/24 14:18:16;;;;;;;;;;;;;;;-10.80;72.58;98210.13;4996502;28;19925;-79
2021/12/24 14:21:44;;;;;;;;;;;;;;;-10.85;72.82;98194.84;5013369;28;20051;-79
2021/12/24 14:23:34;;;;;;;;;;;;;;;-10.82;72.63;98194.97;5013770;28;19921;-78
2021/12/24 14:26:00;;;;;;;;;;;;;;;-10.89;72.55;98199.59;5014093;28;20295;-78